Etusivu
METAR-TAF:

METAR-TAF

Lentoasemat :

Ludington, Michigan, Yhdysvallat

Leveyspiiri: 43-58N, Pituuspiiri: 086-24W, korkeus merenpinnasta: 197 m

Tämänhetkinen sää

Tämä raportti tehtiin 18 minuuttia sitten, kello 07.35 UTC
Tuuli 4 kn lännestä/luoteesta
Lämpötila 2°C
Kosteus 87%
Ilmanpaine 1017 hPa
Näkyvyys: 11.3 km
Pilvistä 1300 ft:n korkeudessa

METAR: KLDM 200735Z AUTO 29004KT 7SM OVC013 02/00 A3003 RMK AO2 T00181001

Aika: 02:53 (07:53 UTC)


TAF: puuttuu

Säähavainnot ja -ennusteet yli 4000 lentoasemalta (METAR- ja TAF-raportit).

Käytössä olevat sääasemat on merkitty karttaan keltaisilla ja punaisilla pisteillä.

Aseta hiiri pisteen päälle nähdäksesi sääaseman nimen.

Klikkaa sitten nähdäksesi säähavainnot ja -ennusteet.

Kartan vaihtaminen: klikkaa mustalla rastilla varustettuja vihreitä pisteitä, niin voit zoomata sisään; viivalla varustettua vihreää pistettä, niin voit zoomata ulos tai vihreitä nuolia, niin pääset viereisille kartoille.


METAR-TAF: